Time;durP1;ratioP1;P1;durP2;ratioP2;P2;SDS_P1;SDS_P2;PMS_P1;PMS_P2;Temp;Humidity;BMP_temperature;BMP_pressure;BME280_temperature;BME280_humidity;BME280_pressure;Samples;Min_cycle;Max_cycle;Signal;HPM_P1;HPM_P2
2024/03/27 00:02:04;;;;;;;7.43;4.30;;;8.80;74.80;;;;;;5046008;28;20207;-62
2024/03/27 00:04:30;;;;;;;9.27;4.13;;;8.80;75.10;;;;;;5046287;28;20202;-62
2024/03/27 00:06:55;;;;;;;12.50;3.80;;;8.70;75.50;;;;;;5045785;28;20638;-62
2024/03/27 00:09:22;;;;;;;8.60;5.17;;;8.70;75.80;;;;;;5036064;28;20195;-62
2024/03/27 00:11:49;;;;;;;7.43;4.50;;;8.60;75.50;;;;;;5048013;28;20743;-63
2024/03/27 00:14:16;;;;;;;12.97;4.47;;;8.60;75.70;;;;;;5024656;28;20434;-62
2024/03/27 00:16:44;;;;;;;6.80;4.10;;;8.50;76.00;;;;;;5039593;28;20437;-62
2024/03/27 00:19:10;;;;;;;12.43;4.37;;;8.50;76.60;;;;;;5043478;28;20984;-62
2024/03/27 00:21:36;;;;;;;8.00;3.67;;;8.40;76.90;;;;;;5043050;28;20544;-61
2024/03/27 00:24:01;;;;;;;22.33;3.20;;;8.40;76.90;;;;;;5047144;28;20903;-62
2024/03/27 00:26:32;;;;;;;13.53;4.50;;;8.30;76.50;;;;;;5040851;28;20411;-62
2024/03/27 00:28:58;;;;;;;9.37;5.20;;;8.30;76.80;;;;;;5029420;28;20984;-62
2024/03/27 00:31:24;;;;;;;10.17;4.63;;;8.30;77.40;;;;;;5042923;28;20451;-61
2024/03/27 00:33:50;;;;;;;8.43;4.50;;;8.20;78.00;;;;;;5037531;28;20709;-62
2024/03/27 00:36:16;;;;;;;8.20;4.40;;;8.20;78.60;;;;;;5025473;28;20434;-62
2024/03/27 00:38:41;;;;;;;7.17;3.80;;;8.10;79.10;;;;;;5045140;28;20252;-62
2024/03/27 00:41:07;;;;;;;8.20;3.53;;;8.10;80.20;;;;;;5046027;28;20705;-61
2024/03/27 00:43:33;;;;;;;7.50;4.40;;;8.10;81.10;;;;;;5043612;28;20178;-62
2024/03/27 00:46:05;;;;;;;9.80;4.07;;;8.00;81.50;;;;;;5042352;28;20179;-62
2024/03/27 00:48:31;;;;;;;9.57;4.30;;;8.00;81.50;;;;;;5037088;28;20199;-62
2024/03/27 00:50:57;;;;;;;9.63;4.37;;;8.00;81.40;;;;;;5044557;28;20431;-62
2024/03/27 00:53:24;;;;;;;17.57;3.93;;;8.00;81.80;;;;;;5040596;28;20433;-61
2024/03/27 00:55:55;;;;;;;8.70;4.13;;;7.90;82.20;;;;;;5041286;28;20515;-62
2024/03/27 00:58:21;;;;;;;7.70;4.00;;;7.90;82.90;;;;;;5041262;28;20441;-61
2024/03/27 01:00:46;;;;;;;8.40;4.57;;;7.90;83.60;;;;;;5013646;28;20481;-62
2024/03/27 01:03:12;;;;;;;7.03;3.77;;;7.80;83.60;;;;;;5039410;28;20171;-62
2024/03/27 01:05:41;;;;;;;15.23;3.60;;;7.80;83.60;;;;;;5044923;28;20179;-62
2024/03/27 01:08:07;;;;;;;5.63;3.43;;;7.80;84.20;;;;;;5039113;28;20203;-61
2024/03/27 01:10:34;;;;;;;6.80;3.50;;;7.80;85.10;;;;;;5035937;28;20436;-62
2024/03/27 01:13:00;;;;;;;8.50;3.40;;;7.80;86.70;;;;;;5043488;28;20183;-62
2024/03/27 01:15:25;;;;;;;4.23;3.20;;;7.70;85.60;;;;;;5040250;28;20542;-61
2024/03/27 01:17:51;;;;;;;4.03;3.53;;;7.70;85.50;;;;;;5040683;28;20468;-62
2024/03/27 01:20:17;;;;;;;4.63;3.80;;;7.70;86.20;;;;;;5049231;28;20672;-62
2024/03/27 01:22:43;;;;;;;6.43;3.17;;;7.60;86.10;;;;;;5046491;28;20202;-62
2024/03/27 01:25:08;;;;;;;7.10;3.83;;;7.60;85.80;;;;;;5036762;28;20445;-62
2024/03/27 01:27:35;;;;;;;6.63;3.53;;;7.50;85.30;;;;;;5034413;28;20819;-62
2024/03/27 01:30:00;;;;;;;6.33;3.33;;;7.50;85.90;;;;;;5040737;28;20402;-61
2024/03/27 01:32:26;;;;;;;8.30;3.50;;;7.40;87.60;;;;;;5037769;28;21933;-62
2024/03/27 01:34:52;;;;;;;5.37;3.40;;;7.40;87.20;;;;;;5036454;28;20646;-62
2024/03/27 01:37:19;;;;;;;7.20;3.37;;;7.30;86.90;;;;;;5039828;28;20187;-62
2024/03/27 01:39:44;;;;;;;9.73;3.60;;;7.30;87.20;;;;;;5044956;28;20179;-62
2024/03/27 01:42:10;;;;;;;3.07;2.77;;;7.20;86.70;;;;;;5044112;28;20466;-61
2024/03/27 01:44:36;;;;;;;7.80;2.83;;;7.20;87.00;;;;;;5026927;28;20183;-62
2024/03/27 01:47:02;;;;;;;9.63;3.70;;;7.10;87.20;;;;;;5040264;28;20184;-62
2024/03/27 01:49:31;;;;;;;5.57;3.27;;;7.10;88.10;;;;;;5047250;28;20626;-63
2024/03/27 01:51:58;;;;;;;7.80;3.57;;;7.10;88.30;;;;;;5031838;28;20965;-62
2024/03/27 01:54:26;;;;;;;5.10;2.93;;;7.00;88.70;;;;;;5038960;28;20418;-61
2024/03/27 01:56:52;;;;;;;4.97;2.93;;;7.00;90.00;;;;;;5039611;28;20428;-62
2024/03/27 01:59:19;;;;;;;5.83;2.50;;;6.90;90.20;;;;;;5038186;28;20465;-62
2024/03/27 02:01:46;;;;;;;3.73;2.30;;;6.90;89.80;;;;;;5041362;28;20469;-62
2024/03/27 02:04:12;;;;;;;3.90;2.20;;;6.90;90.10;;;;;;5039195;28;20432;-62
2024/03/27 02:06:38;;;;;;;4.03;2.73;;;6.90;90.60;;;;;;5036229;28;20504;-61
2024/03/27 02:09:03;;;;;;;5.03;2.47;;;6.90;90.40;;;;;;5037752;28;20585;-61
2024/03/27 02:11:29;;;;;;;3.47;2.77;;;6.90;90.20;;;;;;5041832;28;20184;-62
2024/03/27 02:13:55;;;;;;;5.30;2.97;;;6.80;90.00;;;;;;5039934;28;20188;-62
2024/03/27 02:16:21;;;;;;;8.63;3.20;;;6.80;90.00;;;;;;5033812;28;20448;-62
2024/03/27 02:18:47;;;;;;;11.50;3.60;;;6.80;88.80;;;;;;5038034;28;20199;-62
2024/03/27 02:21:14;;;;;;;4.23;3.00;;;6.70;88.70;;;;;;5044088;28;20452;-62
2024/03/27 02:23:47;;;;;;;6.03;2.90;;;6.60;89.20;;;;;;5039403;28;20172;-61
2024/03/27 02:26:17;;;;;;;5.33;3.27;;;6.60;90.60;;;;;;5040060;28;20410;-62
2024/03/27 02:28:44;;;;;;;4.00;3.40;;;6.50;90.90;;;;;;5036542;28;21094;-62
2024/03/27 02:31:10;;;;;;;6.60;3.00;;;6.50;91.20;;;;;;5044860;28;20422;-62
2024/03/27 02:33:35;;;;;;;3.87;2.60;;;6.40;91.50;;;;;;5038379;28;20938;-60
2024/03/27 02:36:01;;;;;;;5.00;2.90;;;6.40;92.20;;;;;;5041317;28;20187;-60
2024/03/27 02:38:27;;;;;;;20.83;3.53;;;6.40;92.60;;;;;;5039977;28;20217;-62
2024/03/27 02:40:53;;;;;;;7.43;3.10;;;6.40;93.20;;;;;;5046541;28;20274;-62
2024/03/27 02:43:19;;;;;;;10.00;3.53;;;6.30;93.10;;;;;;5044140;28;20422;-62
2024/03/27 02:45:45;;;;;;;4.67;2.70;;;6.30;93.60;;;;;;5023539;28;20468;-62
2024/03/27 02:48:10;;;;;;;4.43;3.17;;;6.30;94.00;;;;;;5023513;28;20229;-62
2024/03/27 02:50:36;;;;;;;5.80;2.97;;;6.30;93.80;;;;;;5042484;28;20302;-62
2024/03/27 02:53:02;;;;;;;7.30;2.70;;;6.30;93.50;;;;;;5035608;28;20183;-62
2024/03/27 02:55:28;;;;;;;3.53;2.80;;;6.20;93.40;;;;;;5047218;28;20184;-62
2024/03/27 02:57:53;;;;;;;3.40;2.70;;;6.20;93.60;;;;;;5044320;28;20516;-62
2024/03/27 03:00:19;;;;;;;8.60;2.90;;;6.10;93.30;;;;;;5039170;28;20676;-62
2024/03/27 03:02:44;;;;;;;4.63;3.00;;;6.10;93.10;;;;;;5019035;28;20203;-62
2024/03/27 03:05:10;;;;;;;4.70;2.60;;;6.10;93.50;;;;;;5043217;28;20236;-62
2024/03/27 03:07:35;;;;;;;4.57;2.73;;;6.10;92.70;;;;;;5042929;28;20707;-62
2024/03/27 03:10:03;;;;;;;8.03;3.00;;;6.10;92.60;;;;;;5018766;28;20176;-62
2024/03/27 03:12:29;;;;;;;6.40;2.70;;;6.00;93.20;;;;;;5037907;28;20190;-61
2024/03/27 03:14:54;;;;;;;3.17;2.33;;;6.00;93.50;;;;;;5036618;28;20421;-62
2024/03/27 03:17:20;;;;;;;7.83;2.93;;;6.00;94.00;;;;;;5045920;28;20266;-62
2024/03/27 03:19:45;;;;;;;11.40;3.53;;;6.00;94.40;;;;;;5042699;28;20174;-62
2024/03/27 03:22:11;;;;;;;10.80;2.97;;;6.00;94.70;;;;;;5029113;28;20199;-62
2024/03/27 03:24:36;;;;;;;5.70;2.80;;;5.90;94.90;;;;;;5042880;28;20179;-62
2024/03/27 03:27:02;;;;;;;4.17;2.70;;;5.90;95.30;;;;;;5049663;28;20309;-62
2024/03/27 03:29:28;;;;;;;4.10;2.47;;;5.90;95.40;;;;;;5041806;28;20204;-62
2024/03/27 03:31:54;;;;;;;5.00;3.30;;;5.90;95.50;;;;;;5045130;28;20690;-61
2024/03/27 03:34:20;;;;;;;3.60;2.50;;;5.90;95.50;;;;;;5045325;28;20179;-62
2024/03/27 03:36:46;;;;;;;3.43;2.57;;;5.90;95.20;;;;;;5035953;28;20415;-62
2024/03/27 03:39:11;;;;;;;4.43;3.17;;;5.90;95.00;;;;;;5039735;28;20227;-61
2024/03/27 03:41:37;;;;;;;6.20;2.90;;;5.90;94.60;;;;;;5022299;28;20223;-62
2024/03/27 03:44:02;;;;;;;4.77;3.27;;;5.90;94.60;;;;;;5040234;28;20186;-61
2024/03/27 03:46:28;;;;;;;4.03;2.93;;;5.90;94.70;;;;;;5046932;28;20687;-61
2024/03/27 03:48:53;;;;;;;4.00;2.73;;;5.90;94.20;;;;;;5042163;28;20276;-59
2024/03/27 03:51:19;;;;;;;6.40;2.73;;;5.90;93.90;;;;;;5045980;28;20180;-62
2024/03/27 03:53:44;;;;;;;5.23;3.00;;;5.80;94.00;;;;;;5036693;28;20187;-61
2024/03/27 03:56:10;;;;;;;8.50;3.50;;;5.80;94.30;;;;;;5038074;28;20666;-60
2024/03/27 03:58:36;;;;;;;5.07;2.80;;;5.80;94.10;;;;;;5038608;28;20217;-61
2024/03/27 04:01:01;;;;;;;5.30;3.30;;;5.70;93.90;;;;;;5046941;28;20244;-61
2024/03/27 04:03:27;;;;;;;6.17;3.30;;;5.70;93.70;;;;;;5041836;28;20184;-62
2024/03/27 04:05:52;;;;;;;8.17;3.87;;;5.60;93.90;;;;;;5039789;28;20172;-62
2024/03/27 04:08:20;;;;;;;6.73;2.90;;;5.60;94.70;;;;;;5039649;28;20187;-62
2024/03/27 04:10:45;;;;;;;9.47;3.20;;;5.50;94.40;;;;;;5043574;28;20176;-61
2024/03/27 04:13:11;;;;;;;6.03;2.60;;;5.50;94.60;;;;;;5042831;28;20824;-62
2024/03/27 04:15:40;;;;;;;4.93;3.13;;;5.50;94.40;;;;;;5044724;28;20225;-62
2024/03/27 04:18:06;;;;;;;3.17;2.83;;;5.50;94.80;;;;;;5022431;28;20933;-61
2024/03/27 04:20:32;;;;;;;4.20;2.87;;;5.40;94.90;;;;;;5043624;28;20410;-62
2024/03/27 04:22:58;;;;;;;7.10;2.77;;;5.40;95.80;;;;;;5042007;28;20461;-62
2024/03/27 04:25:23;;;;;;;5.90;2.77;;;5.40;96.00;;;;;;5037897;28;20643;-61
2024/03/27 04:27:50;;;;;;;6.23;2.60;;;5.40;96.90;;;;;;5038677;28;20195;-62
2024/03/27 04:30:16;;;;;;;8.30;3.00;;;5.40;97.00;;;;;;5042954;28;20259;-62
2024/03/27 04:32:43;;;;;;;8.10;3.50;;;5.40;97.70;;;;;;5021786;28;21868;-62
2024/03/27 04:35:09;;;;;;;5.57;3.17;;;5.40;98.30;;;;;;5042039;28;20409;-63
2024/03/27 04:37:35;;;;;;;3.50;2.50;;;5.40;98.60;;;;;;5041990;28;20513;-63
2024/03/27 04:40:09;;;;;;;7.87;3.33;;;5.40;98.50;;;;;;5021217;28;20425;-62
2024/03/27 04:42:38;;;;;;;8.77;3.50;;;5.40;98.40;;;;;;5045344;28;20871;-62
2024/03/27 04:45:05;;;;;;;6.03;2.87;;;5.40;98.10;;;;;;5041920;28;20463;-62
2024/03/27 04:47:39;;;;;;;5.60;3.10;;;5.40;98.30;;;;;;5041567;28;20442;-62
2024/03/27 04:50:05;;;;;;;6.00;3.37;;;5.40;98.90;;;;;;5040535;28;20429;-62
2024/03/27 04:52:31;;;;;;;5.10;3.23;;;5.40;98.40;;;;;;5041193;28;20426;-61
2024/03/27 04:54:57;;;;;;;9.63;2.80;;;5.40;97.90;;;;;;5037449;28;20444;-62
2024/03/27 04:57:22;;;;;;;5.33;2.77;;;5.40;97.20;;;;;;5022215;28;20182;-61
2024/03/27 04:59:48;;;;;;;8.93;3.00;;;5.30;97.10;;;;;;5043233;28;20191;-62
2024/03/27 05:02:13;;;;;;;4.83;3.30;;;5.30;97.60;;;;;;5039331;28;20199;-61
2024/03/27 05:04:39;;;;;;;4.80;3.23;;;5.30;97.90;;;;;;5039595;28;22062;-60
2024/03/27 05:07:05;;;;;;;4.87;2.90;;;5.30;97.30;;;;;;5037667;28;20187;-60
2024/03/27 05:09:31;;;;;;;7.63;3.93;;;5.30;97.50;;;;;;5041393;28;20195;-60
2024/03/27 05:12:01;;;;;;;4.47;3.03;;;5.30;97.40;;;;;;5038953;28;20429;-60
2024/03/27 05:14:27;;;;;;;8.63;3.40;;;5.30;98.40;;;;;;5036725;28;20436;-60
2024/03/27 05:16:53;;;;;;;4.70;2.67;;;5.30;99.10;;;;;;5037866;28;20454;-64
2024/03/27 05:19:19;;;;;;;5.13;3.50;;;5.30;98.30;;;;;;5042080;28;20829;-63
2024/03/27 05:21:45;;;;;;;6.30;3.40;;;5.30;98.30;;;;;;5033376;28;20196;-63
2024/03/27 05:24:10;;;;;;;4.70;3.53;;;5.30;99.10;;;;;;5022980;28;20437;-60
2024/03/27 05:26:37;;;;;;;10.30;4.20;;;5.30;99.70;;;;;;5039699;28;20176;-64
2024/03/27 05:29:04;;;;;;;6.93;4.00;;;5.30;99.20;;;;;;5035396;28;20226;-64
2024/03/27 05:31:30;;;;;;;6.33;3.50;;;5.30;98.80;;;;;;5038512;28;20495;-63
2024/03/27 05:33:56;;;;;;;6.43;3.67;;;5.30;99.10;;;;;;5036890;28;20434;-64
2024/03/27 05:36:22;;;;;;;8.20;3.50;;;5.30;98.30;;;;;;5042887;28;20429;-64
2024/03/27 05:38:48;;;;;;;4.70;3.20;;;5.30;98.20;;;;;;5033440;28;20820;-64
2024/03/27 05:41:13;;;;;;;5.17;3.00;;;5.30;97.80;;;;;;5044725;28;20175;-64
2024/03/27 05:43:39;;;;;;;4.53;3.20;;;5.30;97.60;;;;;;5039778;28;20172;-63
2024/03/27 05:46:05;;;;;;;6.63;3.30;;;5.20;98.40;;;;;;5020036;28;20173;-63
2024/03/27 05:48:30;;;;;;;9.20;5.63;;;5.20;98.60;;;;;;5032652;28;20188;-64
2024/03/27 05:50:56;;;;;;;7.20;3.80;;;5.20;98.60;;;;;;5035935;28;20171;-64
2024/03/27 05:53:22;;;;;;;6.73;3.53;;;5.30;98.40;;;;;;5037822;28;20285;-63
2024/03/27 05:55:55;;;;;;;9.20;4.40;;;5.20;98.80;;;;;;5044113;28;20234;-64
2024/03/27 05:58:21;;;;;;;8.37;4.90;;;5.20;99.30;;;;;;5041465;28;20195;-63
2024/03/27 06:00:46;;;;;;;7.40;4.73;;;5.30;99.90;;;;;;5042891;28;21144;-63
2024/03/27 06:03:12;;;;;;;8.63;5.00;;;5.20;99.90;;;;;;5041543;28;20202;-64
2024/03/27 06:05:38;;;;;;;11.10;5.40;;;5.30;99.90;;;;;;5036192;28;20567;-64
2024/03/27 06:08:06;;;;;;;8.13;4.90;;;5.30;99.90;;;;;;5028415;28;20229;-63
2024/03/27 06:10:31;;;;;;;12.83;4.13;;;5.30;99.90;;;;;;5039372;28;20853;-56
2024/03/27 06:12:57;;;;;;;8.90;4.10;;;5.40;99.90;;;;;;5048045;28;20556;-63
2024/03/27 06:15:25;;;;;;;8.70;4.00;;;5.40;99.90;;;;;;5039798;28;20244;-64
2024/03/27 06:17:54;;;;;;;8.07;4.10;;;5.50;99.90;;;;;;5043367;28;20207;-64
2024/03/27 06:20:19;;;;;;;12.93;4.40;;;5.50;99.90;;;;;;5040793;28;20422;-64
2024/03/27 06:22:45;;;;;;;11.70;4.27;;;5.60;99.90;;;;;;5042384;28;20461;-64
2024/03/27 06:25:11;;;;;;;6.50;4.03;;;5.60;99.90;;;;;;5045377;28;20183;-64
2024/03/27 06:27:36;;;;;;;8.97;4.40;;;5.60;99.50;;;;;;5036697;28;20700;-65
2024/03/27 06:30:02;;;;;;;5.00;3.80;;;5.60;99.00;;;;;;5042133;28;20172;-63
2024/03/27 06:32:28;;;;;;;5.40;3.97;;;5.60;98.00;;;;;;5038088;28;20187;-64
2024/03/27 06:34:53;;;;;;;18.10;8.00;;;5.70;98.60;;;;;;5046964;28;20186;-64
2024/03/27 06:37:19;;;;;;;12.97;5.33;;;5.70;99.40;;;;;;5045110;28;20329;-64
2024/03/27 06:39:44;;;;;;;9.40;5.70;;;5.80;99.50;;;;;;5043328;28;20172;-62
2024/03/27 06:42:10;;;;;;;23.50;5.93;;;5.90;99.00;;;;;;5030938;28;20202;-64
2024/03/27 06:44:35;;;;;;;11.13;4.97;;;5.90;97.50;;;;;;5040387;28;20701;-64
2024/03/27 06:47:02;;;;;;;16.67;6.83;;;5.90;98.60;;;;;;5040594;28;20533;-64
2024/03/27 06:49:34;;;;;;;15.10;6.37;;;6.00;99.00;;;;;;5030222;28;20209;-63
2024/03/27 06:52:00;;;;;;;17.27;5.83;;;6.10;99.50;;;;;;5041902;28;21182;-63
2024/03/27 06:54:26;;;;;;;8.90;5.50;;;6.10;97.80;;;;;;5042175;28;21143;-63
2024/03/27 06:56:51;;;;;;;10.53;5.53;;;6.20;99.00;;;;;;5047305;28;20563;-63
2024/03/27 06:59:17;;;;;;;7.73;4.97;;;6.30;98.50;;;;;;5044409;28;20584;-64
2024/03/27 07:01:43;;;;;;;12.00;5.40;;;6.30;98.70;;;;;;5043441;28;20203;-64
2024/03/27 07:04:09;;;;;;;12.47;6.23;;;6.40;98.70;;;;;;5040216;28;20179;-61
2024/03/27 07:06:35;;;;;;;20.73;9.77;;;6.50;98.50;;;;;;5039850;28;20430;-60
2024/03/27 07:09:00;;;;;;;11.83;7.70;;;6.60;98.00;;;;;;5023153;28;20203;-61
2024/03/27 07:11:26;;;;;;;9.03;5.20;;;6.70;96.30;;;;;;5038957;28;20289;-61
2024/03/27 07:13:52;;;;;;;14.23;6.70;;;6.80;97.40;;;;;;5040156;28;20220;-61
2024/03/27 07:16:17;;;;;;;12.43;5.40;;;6.90;96.80;;;;;;5028819;28;20187;-60
2024/03/27 07:18:44;;;;;;;14.10;6.00;;;7.00;94.50;;;;;;5037100;28;20202;-66
2024/03/27 07:21:10;;;;;;;12.67;5.87;;;7.10;94.50;;;;;;5043546;28;20181;-65
2024/03/27 07:23:35;;;;;;;15.73;6.00;;;7.30;94.30;;;;;;5023480;28;20509;-64
2024/03/27 07:26:08;;;;;;;15.60;6.87;;;7.40;92.30;;;;;;5042591;28;20562;-64
2024/03/27 07:28:34;;;;;;;10.33;6.07;;;7.60;92.20;;;;;;5048064;28;20190;-62
2024/03/27 07:31:01;;;;;;;11.97;6.60;;;7.70;91.20;;;;;;5046844;28;20547;-63
2024/03/27 07:33:27;;;;;;;15.93;7.10;;;7.80;87.70;;;;;;5036641;28;20421;-63
2024/03/27 07:35:56;;;;;;;11.23;5.77;;;7.80;83.70;;;;;;5042583;28;20433;-62
2024/03/27 07:38:25;;;;;;;12.07;6.03;;;7.90;82.90;;;;;;5041284;28;20236;-63
2024/03/27 07:40:51;;;;;;;24.50;6.93;;;8.00;83.90;;;;;;5048894;28;20432;-62
2024/03/27 07:43:16;;;;;;;14.77;6.30;;;8.20;83.50;;;;;;5046836;28;20453;-62
2024/03/27 07:45:42;;;;;;;13.07;6.43;;;8.30;84.30;;;;;;5036202;28;20179;-63
2024/03/27 07:48:10;;;;;;;12.50;6.70;;;8.50;81.10;;;;;;5037792;28;20223;-60
2024/03/27 07:50:36;;;;;;;24.83;6.50;;;8.60;79.70;;;;;;5034448;28;20168;-63
2024/03/27 07:53:02;;;;;;;13.90;6.43;;;8.70;78.60;;;;;;5043364;28;20435;-64
2024/03/27 07:55:27;;;;;;;14.63;6.90;;;8.90;76.60;;;;;;5045946;28;20212;-66
2024/03/27 07:57:53;;;;;;;13.63;6.10;;;9.00;74.20;;;;;;5043293;28;20285;-63
2024/03/27 08:00:19;;;;;;;15.73;5.90;;;9.00;73.80;;;;;;5042987;28;20179;-64
2024/03/27 08:02:44;;;;;;;10.63;5.80;;;9.10;74.10;;;;;;5043773;28;20575;-64
2024/03/27 08:05:10;;;;;;;18.20;5.60;;;9.30;74.30;;;;;;5038919;28;20172;-63
2024/03/27 08:07:36;;;;;;;12.50;5.50;;;9.40;74.40;;;;;;5041406;28;20221;-64
2024/03/27 08:10:05;;;;;;;16.47;5.97;;;9.60;74.80;;;;;;5043686;28;20262;-64
2024/03/27 08:12:31;;;;;;;15.20;6.17;;;9.70;74.50;;;;;;5044168;28;20175;-63
2024/03/27 08:14:57;;;;;;;10.43;4.17;;;9.90;71.60;;;;;;5016482;28;21079;-64
2024/03/27 08:17:23;;;;;;;7.00;3.53;;;10.20;68.10;;;;;;5037065;28;20196;-62
2024/03/27 08:19:49;;;;;;;9.20;4.40;;;10.30;64.40;;;;;;5040546;28;20195;-65
2024/03/27 08:22:15;;;;;;;11.00;5.13;;;10.40;63.00;;;;;;5044321;28;20195;-63
2024/03/27 08:24:41;;;;;;;10.13;3.40;;;10.50;62.10;;;;;;5038147;28;20164;-63
2024/03/27 08:27:06;;;;;;;8.17;3.53;;;10.50;60.60;;;;;;5023376;28;20428;-64
2024/03/27 08:29:33;;;;;;;4.20;3.27;;;10.60;60.30;;;;;;5040476;28;20704;-64
2024/03/27 08:31:59;;;;;;;7.83;3.43;;;10.50;60.00;;;;;;5018841;28;20673;-64
2024/03/27 08:34:25;;;;;;;6.40;3.67;;;10.50;59.80;;;;;;5025631;28;21151;-66
2024/03/27 08:36:51;;;;;;;9.77;3.90;;;10.50;59.60;;;;;;5041752;28;20433;-64
2024/03/27 08:39:17;;;;;;;5.87;3.77;;;10.60;59.60;;;;;;5045614;28;20494;-65
2024/03/27 08:41:46;;;;;;;9.67;3.70;;;10.60;59.60;;;;;;5037019;28;20240;-64
2024/03/27 08:44:12;;;;;;;10.73;4.00;;;10.70;59.70;;;;;;5038476;28;20270;-64
2024/03/27 08:46:38;;;;;;;6.13;3.60;;;10.70;59.00;;;;;;5036145;28;20497;-58
2024/03/27 08:49:05;;;;;;;6.70;3.10;;;10.80;59.10;;;;;;5034947;28;21063;-59
2024/03/27 08:51:31;;;;;;;5.10;3.70;;;10.90;58.70;;;;;;5038324;28;20449;-65
2024/03/27 08:53:56;;;;;;;6.07;3.40;;;10.90;58.70;;;;;;5022810;28;20545;-64
2024/03/27 08:56:22;;;;;;;5.90;3.80;;;11.00;58.50;;;;;;5039056;28;20520;-65
2024/03/27 08:58:47;;;;;;;5.83;3.50;;;11.10;58.70;;;;;;5041152;28;20209;-64
2024/03/27 09:01:17;;;;;;;8.47;3.90;;;11.20;58.20;;;;;;5039881;28;20319;-65
2024/03/27 09:03:43;;;;;;;7.13;3.30;;;11.40;57.70;;;;;;5040234;28;20183;-65
2024/03/27 09:06:10;;;;;;;11.00;4.00;;;11.50;57.50;;;;;;5037967;28;20864;-64
2024/03/27 09:08:36;;;;;;;8.03;3.90;;;11.70;57.50;;;;;;5042230;28;20841;-64
2024/03/27 09:11:02;;;;;;;8.23;4.10;;;11.80;57.50;;;;;;5038451;28;20427;-64
2024/03/27 09:13:28;;;;;;;6.67;3.40;;;11.90;57.50;;;;;;5038353;28;20907;-64
2024/03/27 09:15:58;;;;;;;8.23;4.30;;;12.00;57.10;;;;;;5018597;28;20442;-64
2024/03/27 09:18:24;;;;;;;9.33;4.40;;;12.00;56.60;;;;;;5035342;28;20183;-64
2024/03/27 09:21:00;;;;;;;7.73;3.97;;;12.10;56.70;;;;;;5041046;28;20539;-64
2024/03/27 09:23:26;;;;;;;7.57;4.30;;;12.10;56.50;;;;;;5037528;28;20457;-63
2024/03/27 09:25:56;;;;;;;9.10;5.03;;;12.10;56.30;;;;;;5035484;28;20418;-65
2024/03/27 09:28:22;;;;;;;8.40;4.87;;;12.10;56.00;;;;;;5040022;28;20456;-64
2024/03/27 09:30:48;;;;;;;10.30;5.50;;;12.30;56.20;;;;;;5024720;28;20514;-65
2024/03/27 09:33:14;;;;;;;10.20;5.43;;;12.40;55.60;;;;;;5042570;28;20481;-65
2024/03/27 09:35:42;;;;;;;11.33;5.60;;;12.50;55.60;;;;;;5043847;28;20186;-65
2024/03/27 09:38:09;;;;;;;8.97;5.20;;;12.60;55.40;;;;;;5042025;28;20421;-63
2024/03/27 09:40:47;;;;;;;7.43;5.63;;;12.60;55.00;;;;;;5037098;28;20804;-65
2024/03/27 09:43:15;;;;;;;7.33;4.80;;;12.60;55.70;;;;;;5018767;28;20452;-64
2024/03/27 09:45:43;;;;;;;8.70;5.23;;;12.60;56.10;;;;;;5043503;28;20485;-64
2024/03/27 09:48:15;;;;;;;7.80;5.67;;;12.60;55.80;;;;;;5035654;28;20509;-64
2024/03/27 09:50:41;;;;;;;11.30;5.23;;;12.60;55.80;;;;;;5040744;28;20413;-64
2024/03/27 09:53:07;;;;;;;13.80;5.27;;;12.60;56.00;;;;;;5034525;28;20433;-64
2024/03/27 09:55:38;;;;;;;8.87;4.57;;;12.50;55.80;;;;;;5040797;28;20462;-64
2024/03/27 09:58:15;;;;;;;6.63;4.13;;;12.50;55.50;;;;;;5037060;28;20688;-64
2024/03/27 10:00:42;;;;;;;8.87;4.00;;;12.60;55.70;;;;;;5040380;28;20436;-64
2024/03/27 10:03:08;;;;;;;9.30;4.03;;;12.70;56.00;;;;;;5036242;28;20807;-65
2024/03/27 10:05:34;;;;;;;4.90;4.20;;;12.70;56.20;;;;;;5036730;28;20487;-64
2024/03/27 10:08:04;;;;;;;6.00;3.77;;;12.60;56.80;;;;;;5039379;28;20834;-65
2024/03/27 10:10:30;;;;;;;4.43;3.50;;;12.80;58.60;;;;;;5037239;28;20589;-64
2024/03/27 10:12:58;;;;;;;5.63;3.30;;;13.20;59.30;;;;;;5039343;28;20474;-64
2024/03/27 10:15:24;;;;;;;5.50;3.10;;;13.40;58.50;;;;;;5022961;28;20426;-65
2024/03/27 10:17:50;;;;;;;9.03;3.73;;;13.50;56.90;;;;;;5036175;28;20450;-65
2024/03/27 10:20:16;;;;;;;2.90;2.70;;;13.50;56.10;;;;;;5036633;28;20451;-64
2024/03/27 10:22:42;;;;;;;3.97;2.67;;;13.50;55.90;;;;;;5040959;28;20472;-60
2024/03/27 10:25:09;;;;;;;5.03;3.10;;;13.50;56.30;;;;;;5039681;28;20179;-62
2024/03/27 10:27:35;;;;;;;2.87;2.60;;;13.70;58.00;;;;;;5039991;28;20182;-63
2024/03/27 10:30:02;;;;;;;5.47;2.70;;;13.80;57.00;;;;;;5021325;28;20421;-64
2024/03/27 10:32:28;;;;;;;4.00;3.03;;;13.80;56.40;;;;;;5038636;28;20440;-62
2024/03/27 10:34:53;;;;;;;5.13;2.80;;;13.80;56.10;;;;;;5042329;28;20496;-63
2024/03/27 10:37:20;;;;;;;2.93;2.63;;;13.70;56.30;;;;;;5044564;28;20171;-63
2024/03/27 10:39:47;;;;;;;3.40;2.80;;;13.60;57.60;;;;;;5042093;28;20176;-64
2024/03/27 10:42:22;;;;;;;10.63;3.63;;;13.70;57.70;;;;;;5022308;28;20438;-64
2024/03/27 10:44:49;;;;;;;9.27;3.30;;;13.70;57.40;;;;;;5032132;28;20537;-63
2024/03/27 10:47:18;;;;;;;3.43;2.87;;;13.50;57.30;;;;;;5035165;28;21111;-64
2024/03/27 10:49:45;;;;;;;7.63;3.93;;;13.50;58.10;;;;;;5016790;28;20434;-62
2024/03/27 10:52:13;;;;;;;6.20;3.87;;;13.40;57.40;;;;;;5019859;28;20421;-64
2024/03/27 10:54:41;;;;;;;4.73;3.77;;;13.20;57.60;;;;;;5042758;28;20876;-65
2024/03/27 10:57:08;;;;;;;10.73;4.90;;;13.20;57.90;;;;;;5023344;28;20492;-62
2024/03/27 10:59:34;;;;;;;10.43;4.80;;;13.20;57.70;;;;;;5042779;28;20448;-62
2024/03/27 11:02:07;;;;;;;6.87;4.93;;;13.20;58.30;;;;;;5041836;28;20560;-62
2024/03/27 11:04:33;;;;;;;6.07;5.07;;;13.30;58.40;;;;;;5041081;28;21006;-65
2024/03/27 11:06:59;;;;;;;7.10;5.10;;;13.30;57.40;;;;;;5036841;28;20513;-65
2024/03/27 11:09:24;;;;;;;6.57;4.90;;;13.10;57.60;;;;;;5045520;28;20274;-65
2024/03/27 11:11:51;;;;;;;7.67;4.73;;;12.80;57.90;;;;;;5018170;28;20190;-60
2024/03/27 11:14:23;;;;;;;6.97;4.67;;;12.60;58.30;;;;;;5046752;28;20365;-58
2024/03/27 11:16:52;;;;;;;7.90;4.50;;;12.40;58.90;;;;;;5040716;28;20858;-58
2024/03/27 11:19:32;;;;;;;6.40;4.50;;;12.20;59.60;;;;;;5037823;28;20545;-64
2024/03/27 11:22:07;;;;;;;8.37;4.70;;;12.00;60.30;;;;;;5045121;28;20511;-63
2024/03/27 11:24:33;;;;;;;9.63;4.77;;;11.90;61.20;;;;;;5040150;28;20858;-64
2024/03/27 11:27:03;;;;;;;10.93;5.80;;;11.70;61.60;;;;;;5044090;28;20465;-64
2024/03/27 11:29:30;;;;;;;5.40;4.73;;;11.70;62.20;;;;;;5043234;28;20537;-64
2024/03/27 11:32:03;;;;;;;6.27;4.33;;;11.70;62.70;;;;;;5041855;28;20508;-60
2024/03/27 11:34:29;;;;;;;9.87;4.90;;;11.60;62.30;;;;;;5036596;28;20446;-59
2024/03/27 11:36:56;;;;;;;6.40;4.30;;;11.50;62.70;;;;;;5042560;28;20426;-63
2024/03/27 11:39:23;;;;;;;5.73;4.67;;;11.40;62.60;;;;;;5038543;28;20472;-64
2024/03/27 11:41:49;;;;;;;8.80;4.67;;;11.40;63.90;;;;;;5039855;28;21094;-64
2024/03/27 11:44:15;;;;;;;5.87;4.40;;;11.50;64.60;;;;;;5026400;28;20430;-64
2024/03/27 11:46:41;;;;;;;11.17;4.97;;;11.60;64.10;;;;;;5033610;28;20171;-61
2024/03/27 11:49:06;;;;;;;5.60;4.33;;;11.60;64.30;;;;;;5040868;28;20525;-62
2024/03/27 11:51:32;;;;;;;8.93;4.50;;;11.50;63.90;;;;;;5042916;28;20440;-62
2024/03/27 11:53:58;;;;;;;7.33;4.20;;;11.40;63.40;;;;;;5042179;28;20183;-61
2024/03/27 11:56:35;;;;;;;5.83;3.90;;;11.10;64.10;;;;;;5039564;28;20641;-62
2024/03/27 11:59:02;;;;;;;4.63;3.77;;;10.90;65.20;;;;;;5040159;28;20877;-62
2024/03/27 12:01:30;;;;;;;5.10;3.83;;;10.80;66.00;;;;;;5043472;28;20416;-61
2024/03/27 12:03:59;;;;;;;5.00;3.70;;;10.80;67.10;;;;;;5043824;28;20425;-63
2024/03/27 12:06:25;;;;;;;4.47;3.30;;;10.70;68.10;;;;;;5023002;28;20516;-62
2024/03/27 12:08:51;;;;;;;4.33;3.33;;;10.60;68.30;;;;;;5040520;28;20806;-63
2024/03/27 12:11:21;;;;;;;3.60;3.30;;;10.50;68.50;;;;;;5035650;28;20433;-63
2024/03/27 12:13:48;;;;;;;3.33;3.03;;;10.30;69.10;;;;;;5037410;28;20456;-62
2024/03/27 12:16:14;;;;;;;3.13;2.80;;;10.20;70.20;;;;;;5039962;28;20460;-62
2024/03/27 12:18:42;;;;;;;4.70;3.00;;;10.10;71.20;;;;;;5041732;28;20446;-62
2024/03/27 12:21:12;;;;;;;2.77;2.57;;;10.00;72.60;;;;;;5041556;28;20430;-62
2024/03/27 12:23:38;;;;;;;3.87;2.73;;;9.90;73.50;;;;;;5038200;28;20447;-62
2024/03/27 12:26:12;;;;;;;2.90;2.60;;;9.80;73.30;;;;;;5045156;28;20854;-63
2024/03/27 12:28:40;;;;;;;4.80;3.30;;;9.70;74.40;;;;;;5044275;28;21235;-62
2024/03/27 12:31:05;;;;;;;3.17;2.20;;;9.70;77.50;;;;;;5043296;28;20413;-62
2024/03/27 12:33:32;;;;;;;2.40;2.20;;;9.70;77.80;;;;;;5037358;28;20532;-63
2024/03/27 12:35:58;;;;;;;2.50;2.30;;;9.60;76.90;;;;;;5042729;28;20180;-62
2024/03/27 12:38:24;;;;;;;2.60;2.40;;;9.60;75.20;;;;;;5038610;28;20540;-62
2024/03/27 12:40:49;;;;;;;5.40;2.70;;;9.50;75.70;;;;;;5045316;28;20188;-62
2024/03/27 12:43:15;;;;;;;5.13;3.43;;;9.40;76.70;;;;;;5043062;28;20206;-61
2024/03/27 12:45:41;;;;;;;4.30;2.07;;;9.40;77.00;;;;;;5040906;28;20167;-63
2024/03/27 12:48:07;;;;;;;4.20;2.87;;;9.40;75.10;;;;;;5022280;28;20195;-63